Leviticus — WDC2712 — position and weather

sailwx.info

Track history (hours):
 
Tides and Currents Weather Stations Pressure Air Temp Water Temp Dewpoint Dewpoint Depression Visibility Wind Speed Wind Dir Waves Ship Positions

Leviticus

Owner: Kirby Inland Marine, LP, Houston, TX. More information available from US FCC via Universal Licensing System and Coast Guard Vessel Documentation Center.

Last reported at 2017-May-21 14:37 UTC. Time now 2017-May-26 05:44 UTC.
Position N 32°36' W 091°09'.

Length 320 m; draft 2.9 m.

Type: . MMSI: 366996690.

Date/timePositionNaut miles runAvg speedWind from/ knotsBaromVisibWave heightAir tempDewpointWater temp
2017-May-21 14:37N 32°36' W 091°09'1 4.4
2017-May-21 14:28N 32°36' W 091°08'7 4.4
2017-May-21 12:49N 32°29' W 091°06'1 3.3
2017-May-21 12:30N 32°28' W 091°06'2 4.6
2017-May-21 12:00N 32°27' W 091°04'2 4.2
2017-May-21 11:30N 32°26' W 091°01'2 3.9
2017-May-21 11:00N 32°24' W 090°60'3 5.0
2017-May-21 10:30N 32°22' W 091°00'2 5.0
2017-May-21 10:00N 32°21' W 090°57'2 4.0
2017-May-21 09:30N 32°20' W 090°55'1 2.9
2017-May-21 09:00N 32°19' W 090°54'2 4.9
2017-May-21 08:30N 32°17' W 090°56'1 1.9
2017-May-21 08:00N 32°17' W 090°57'3 5.3
2017-May-21 07:30N 32°14' W 090°58'3 5.1
2017-May-21 07:00N 32°12' W 090°59'2 4.5
2017-May-21 06:30N 32°10' W 090°60'2 5.0
2017-May-21 06:00N 32°07' W 091°01'2 4.0
2017-May-21 05:30N 32°08' W 091°04'2 4.0
2017-May-21 05:00N 32°07' W 091°06'4 5.2
2017-May-21 04:17N 32°04' W 091°04'1 4.6
2017-May-21 04:00N 32°03' W 091°04'  
Track history (hours):
 
Tides and Currents Weather Stations Pressure Air Temp Water Temp Dewpoint Dewpoint Depression Visibility Wind Speed Wind Dir Waves Ship Positions

Leviticus

Owner: Kirby Inland Marine, LP, Houston, TX. More information available from US FCC via Universal Licensing System and Coast Guard Vessel Documentation Center.

Last reported at 2017-May-21 14:37 UTC. Time now 2017-May-26 05:44 UTC.
Position N 32°36' W 091°09'.

Length 320 m; draft 2.9 m.

Type: . MMSI: 366996690.

Date/timePositionNaut miles runAvg speedWind from/ knotsBaromVisibWave heightAir tempDewpointWater temp
2017-May-21 14:37N 32°36' W 091°09'1 4.4
2017-May-21 14:28N 32°36' W 091°08'7 4.4
2017-May-21 12:49N 32°29' W 091°06'1 3.3
2017-May-21 12:30N 32°28' W 091°06'2 4.6
2017-May-21 12:00N 32°27' W 091°04'2 4.2
2017-May-21 11:30N 32°26' W 091°01'2 3.9
2017-May-21 11:00N 32°24' W 090°60'3 5.0
2017-May-21 10:30N 32°22' W 091°00'2 5.0
2017-May-21 10:00N 32°21' W 090°57'2 4.0
2017-May-21 09:30N 32°20' W 090°55'1 2.9
2017-May-21 09:00N 32°19' W 090°54'2 4.9
2017-May-21 08:30N 32°17' W 090°56'1 1.9
2017-May-21 08:00N 32°17' W 090°57'3 5.3
2017-May-21 07:30N 32°14' W 090°58'3 5.1
2017-May-21 07:00N 32°12' W 090°59'2 4.5
2017-May-21 06:30N 32°10' W 090°60'2 5.0
2017-May-21 06:00N 32°07' W 091°01'2 4.0
2017-May-21 05:30N 32°08' W 091°04'2 4.0
2017-May-21 05:00N 32°07' W 091°06'4 5.2
2017-May-21 04:17N 32°04' W 091°04'1 4.6
2017-May-21 04:00N 32°03' W 091°04'  

Dump ship's entire track history